Hovedside
METAR-TAF:

METAR-TAF

Lufthavner :

Roma-Fiumicino, Italia

Leonardo da Vinci internasjonale lufthavn

breddegrad: 41-48N, lengdegrad: 012-14E, høyde over havet: 2 m

Gjeldene værobservasjon

Denne rapporten ble laget for 42 minutter siden, klokken 18:50 UTC
Vind 8 kt fra Sørvest
Temperatur 14°C
Luftfuktighet 72%
Trykk 1017 hPa
Sikt 10 km eller mer
Spredte skyer i en høyde av 2000 ft
Spredte skyer i en høyde av 4000 ft

METAR: LIRF 181850Z 22008KT 9999 SCT020 SCT040 14/09 Q1017 NOSIG

Tid: 20:32 (19:32 UTC)

Varsel

Denne rapporten ble laget for 2 timer og 32 minutter siden, klokken 17:00 UTC
Varsel gyldig fra 18. klokken 18 UTC til 19. klokken 24 UTC
Vind 15 kt fra Sørvest
Sikt 10 km eller mer
Spredte skyer i en høyde av 3000 ft
Blir
fra 19. klokken 18 UTC til 19. klokken 20 UTC
Vind 5 kt fra skiftende retning

TAF: LIRF 181700Z 1818/1924 22015KT 9999 SCT030 BECMG 1918/1920 VRB05KT

Værobservasjoner og værvarsel for over 4000 flyplasser (METAR- og TAF-rapporter).

Tilgjengelige stasjoner er representert av de røde og gule prikkene på kartet.

Hold musepekeren over prikken for å se navnet på stasjonen.

Klikk så for å se værobservasjoner og -varsler.

For å forandre kartet kan du klikke på den grønne knappen med svart kryss for å zoome inn, på den grønne knappen med strek for å zoome ut, eller på de grønne pilene for å se tilstøtende kart.


METAR-TAF: